AST,Max TemperatureF,Mean TemperatureF,Min TemperatureF,Max Dew PointF,MeanDew PointF,Min DewpointF,Max Humidity, Mean Humidity, Min Humidity, Max Sea Level PressureIn, Mean Sea Level PressureIn, Min Sea Level PressureIn, Max VisibilityMiles, Mean VisibilityMiles, Min VisibilityMiles, Max Wind SpeedMPH, Mean Wind SpeedMPH, Max Gust SpeedMPH,PrecipitationIn, CloudCover, Events, WindDirDegrees
2013-3-1,81,74,66,64,62,55,88,69,42,30.09,30.04,30.01,7,6,5,18,9,20,0.00,,,110
2013-3-2,82,76,69,66,63,54,83,67,40,30.10,30.05,30.01,9,8,7,17,9,22,0.00,,,106
2013-3-3,85,77,69,68,64,52,88,69,33,30.15,30.08,30.04,7,6,6,14,6,,0.00,,,95
2013-3-4,84,76,68,64,59,52,83,57,26,30.12,30.03,29.98,10,8,7,9,5,,0.00,,,108
2013-3-5,88,78,68,64,59,46,78,54,22,29.99,29.91,29.83,9,7,6,16,8,,0.00,,,145
2013-3-6,92,82,71,64,59,46,73,50,18,29.94,29.85,29.77,10,5,4,17,10,,0.00,,,136
2013-3-7,79,72,64,64,51,41,78,48,27,30.11,30.01,29.86,6,4,3,29,19,33,0.00,,,336
2013-3-8,75,68,60,46,42,37,55,41,22,30.19,30.11,30.06,7,5,3,17,14,32,0.00,,,324
2013-3-9,78,69,60,61,52,43,78,57,28,30.13,30.03,29.95,6,6,5,10,7,,0.00,,,65
2013-3-10,78,72,66,66,62,57,88,70,38,29.95,29.86,29.77,7,6,5,18,8,,0.01,3,Rain,126
2013-3-11,82,76,68,61,47,32,65,38,16,29.99,29.89,29.77,6,5,3,24,12,31,0.00,2,Rain,331
2013-3-12,81,72,64,50,42,30,56,34,10,30.06,30.01,29.98,7,6,5,24,13,37,0.00,,,316
2013-3-13,85,74,64,52,45,39,64,38,12,30.06,30.00,29.95,7,6,6,18,9,23,0.00,,,304
2013-3-14,85,75,65,59,53,48,64,47,23,30.05,29.99,29.95,7,6,6,13,7,,0.00,,,341
2013-3-15,87,77,67,64,50,32,83,44,14,30.07,30.02,29.98,6,5,4,9,5,,0.00,,,346
2013-3-16,88,76,65,64,56,37,88,55,15,30.07,30.00,29.95,9,5,4,12,3,,0.00,,,105
2013-3-17,87,78,69,64,60,48,83,57,21,29.99,29.92,29.86,9,6,0,15,6,,0.00,,,112
2013-3-18,89,80,72,66,58,46,78,49,17,29.95,29.85,29.80,7,6,6,15,8,,0.00,,,126
2013-3-19,83,76,69,64,61,55,78,60,39,29.92,29.86,29.77,7,6,6,18,9,,0.00,1,,5
2013-3-20,83,75,67,63,59,48,78,62,30,29.95,29.89,29.83,7,6,6,20,12,,0.00,5,,353
2013-3-21,79,74,68,64,60,55,78,62,44,29.98,29.93,29.86,10,6,5,20,14,30,0.01,6,Rain,344
2013-3-22,84,75,66,59,45,30,73,41,8,29.98,29.91,29.86,11,10,9,16,11,,0.00,,,323
2013-3-23,84,74,63,63,51,39,83,46,14,29.92,29.86,29.83,9,6,6,13,5,,0.02,6,Rain,243
2013-3-24,82,75,68,68,62,54,78,63,42,29.94,29.88,29.80,7,6,6,12,7,,0.00,6,Rain,53
2013-3-25,78,73,68,64,56,41,73,53,31,30.06,29.99,29.92,7,5,2,21,10,,0.00,5,,343
2013-3-26,81,72,64,50,42,28,56,36,8,30.04,29.97,29.92,9,6,6,17,10,29,0.00,,,305
2013-3-27,83,72,62,57,47,32,72,43,14,30.00,29.94,29.89,10,7,6,12,6,,0.00,,,330
2013-3-28,86,75,64,59,49,36,77,41,16,30.01,29.93,29.89,7,7,6,13,6,,0.00,,,167
2013-3-29,86,76,66,68,57,37,78,51,10,30.00,29.93,29.89,9,7,6,12,4,,0.00,3,,112
2013-3-30,90,81,72,68,54,40,83,43,13,29.99,29.92,29.86,6,5,5,9,4,,0.00,,,54
2013-3-31,93,84,76,59,46,36,48,26,13,29.96,29.91,29.89,7,6,6,21,7,,0.00,5,,332